<?xml version="1.0" encoding="UTF-8"?>
<gpx creator="Wikiloc - https://www.wikiloc.com" version="1.1" xmlns="http://www.topografix.com/GPX/1/1" xmlns:xsi="http://www.w3.org/2001/XMLSchema-instance" xsi:schemaLocation="http://www.topografix.com/GPX/1/1 http://www.topografix.com/GPX/1/1/gpx.xsd">
  <metadata>
    <name>Wikiloc - itinerario 03 - Le Piagge</name>
    <author>
      <name>owen782</name>
      <link href="https://www.wikiloc.com/wikiloc/user.do?id=5312202">
        <text>owen782 on Wikiloc</text>
      </link>
    </author>
    <link href="https://www.wikiloc.com/hiking-trails/itinerario-03-le-piagge-90515323">
      <text>itinerario 03 - Le Piagge on Wikiloc</text>
    </link>
    <time>2021-12-10T11:24:56Z</time>
  </metadata>
  <wpt lat="43.148749" lon="12.304468">
    <ele>370.9</ele>
    <time>2021-12-10T11:25:01Z</time>
    <name>Calcinaia</name>
    <cmt></cmt>
    <desc></desc>
  </wpt>
  <wpt lat="43.150189" lon="12.311654">
    <ele>434.9</ele>
    <time>2021-12-10T11:25:05Z</time>
    <name>Calcinaia</name>
    <cmt></cmt>
    <desc></desc>
  </wpt>
  <wpt lat="43.148429" lon="12.305149">
    <ele>379.4</ele>
    <time>2021-12-10T11:25:10Z</time>
    <name>Carbonaia (Tane)</name>
    <cmt></cmt>
    <desc></desc>
  </wpt>
  <wpt lat="43.150283" lon="12.310833">
    <ele>431.0</ele>
    <time>2021-12-10T11:25:15Z</time>
    <name>Dolina carsica</name>
    <cmt></cmt>
    <desc></desc>
  </wpt>
  <wpt lat="43.147751" lon="12.312530">
    <ele>450.9</ele>
    <time>2021-12-10T11:25:19Z</time>
    <name>I Sassi Grossi</name>
    <cmt>I Sassi Grossi</cmt>
    <desc>I Sassi Grossi</desc>
  </wpt>
  <wpt lat="43.158216" lon="12.288704">
    <ele>286.7</ele>
    <time>2021-12-10T11:25:25Z</time>
    <name>MANTIGNANA</name>
    <cmt>MANTIGNANA</cmt>
    <desc>MANTIGNANA</desc>
  </wpt>
  <wpt lat="43.145439" lon="12.292714">
    <ele>301.9</ele>
    <time>2021-12-10T11:25:29Z</time>
    <name>MIGIANA</name>
    <cmt>MIGIANA</cmt>
    <desc>MIGIANA</desc>
  </wpt>
  <wpt lat="43.152897" lon="12.303350">
    <ele>332.2</ele>
    <time>2021-12-10T11:25:34Z</time>
    <name>Oliveto</name>
    <cmt></cmt>
    <desc></desc>
  </wpt>
  <wpt lat="43.148477" lon="12.311741">
    <ele>444.6</ele>
    <time>2021-12-10T11:25:40Z</time>
    <name>Partenza/Arrivo</name>
    <cmt></cmt>
    <desc></desc>
  </wpt>
  <wpt lat="43.152963" lon="12.303512">
    <ele>332.3</ele>
    <time>2021-12-10T11:25:52Z</time>
    <name>Troscia</name>
    <cmt></cmt>
    <desc></desc>
  </wpt>
  <wpt lat="43.151775" lon="12.312273">
    <ele>398.0</ele>
    <time>2021-12-10T11:25:57Z</time>
    <name>Troscia</name>
    <cmt></cmt>
    <desc></desc>
  </wpt>
  <wpt lat="43.148660" lon="12.311444">
    <ele>439.3</ele>
    <time>2021-12-10T11:31:36Z</time>
    <name>All'itinerario 02</name>
    <cmt></cmt>
    <desc></desc>
  </wpt>
  <wpt lat="43.151720" lon="12.313589">
    <ele>406.9</ele>
    <time>2021-12-10T11:31:41Z</time>
    <name>All'itinerario 04</name>
    <cmt></cmt>
    <desc></desc>
  </wpt>
  <wpt lat="43.151970" lon="12.304320">
    <ele>350.3</ele>
    <time>2021-12-10T11:31:46Z</time>
    <name>Arrivo variante</name>
    <cmt></cmt>
    <desc></desc>
  </wpt>
  <wpt lat="43.152154" lon="12.311764">
    <ele>392.0</ele>
    <time>2021-12-10T11:31:52Z</time>
    <name>Arrivo variante</name>
    <cmt></cmt>
    <desc></desc>
  </wpt>
  <wpt lat="43.152555" lon="12.306560">
    <ele>345.7</ele>
    <time>2021-12-10T11:31:58Z</time>
    <name>Partenza variante</name>
    <cmt></cmt>
    <desc></desc>
  </wpt>
  <wpt lat="43.152555" lon="12.306560">
    <ele>345.7</ele>
    <time>2021-12-10T11:33:31Z</time>
    <name>Partenza variante</name>
    <cmt></cmt>
    <desc></desc>
  </wpt>
  <trk>
    <name>itinerario 03 - Le Piagge</name>
    <cmt></cmt>
    <desc></desc>
    <trkseg>
      <trkpt lat="43.148477" lon="12.311741">
        <ele>444.698</ele>
        <time>2021-12-10T12:36:27Z</time>
      </trkpt>
      <trkpt lat="43.148542" lon="12.311730">
        <ele>444.515</ele>
        <time>2021-12-10T12:37:07Z</time>
      </trkpt>
      <trkpt lat="43.148654" lon="12.311677">
        <ele>443.626</ele>
        <time>2021-12-10T12:37:47Z</time>
      </trkpt>
      <trkpt lat="43.148933" lon="12.311536">
        <ele>443.008</ele>
        <time>2021-12-10T12:38:27Z</time>
      </trkpt>
      <trkpt lat="43.149471" lon="12.311405">
        <ele>442.898</ele>
        <time>2021-12-10T12:39:07Z</time>
      </trkpt>
      <trkpt lat="43.149712" lon="12.311321">
        <ele>437.989</ele>
        <time>2021-12-10T12:39:47Z</time>
      </trkpt>
      <trkpt lat="43.149858" lon="12.311244">
        <ele>436.024</ele>
        <time>2021-12-10T12:40:27Z</time>
      </trkpt>
      <trkpt lat="43.150071" lon="12.311229">
        <ele>433.810</ele>
        <time>2021-12-10T12:41:07Z</time>
      </trkpt>
      <trkpt lat="43.150195" lon="12.311282">
        <ele>432.914</ele>
        <time>2021-12-10T12:41:47Z</time>
      </trkpt>
      <trkpt lat="43.150279" lon="12.311521">
        <ele>433.482</ele>
        <time>2021-12-10T12:42:27Z</time>
      </trkpt>
      <trkpt lat="43.150290" lon="12.311721">
        <ele>433.541</ele>
        <time>2021-12-10T12:43:07Z</time>
      </trkpt>
      <trkpt lat="43.150531" lon="12.312174">
        <ele>426.662</ele>
        <time>2021-12-10T12:43:47Z</time>
      </trkpt>
      <trkpt lat="43.150935" lon="12.312758">
        <ele>417.694</ele>
        <time>2021-12-10T12:44:27Z</time>
      </trkpt>
      <trkpt lat="43.151384" lon="12.313274">
        <ele>410.357</ele>
        <time>2021-12-10T12:45:07Z</time>
      </trkpt>
      <trkpt lat="43.151720" lon="12.313589">
        <ele>406.922</ele>
        <time>2021-12-10T12:45:47Z</time>
      </trkpt>
      <trkpt lat="43.151765" lon="12.313281">
        <ele>405.608</ele>
        <time>2021-12-10T12:46:27Z</time>
      </trkpt>
      <trkpt lat="43.151765" lon="12.313066">
        <ele>404.158</ele>
        <time>2021-12-10T12:47:07Z</time>
      </trkpt>
      <trkpt lat="43.151765" lon="12.312728">
        <ele>400.249</ele>
        <time>2021-12-10T12:47:47Z</time>
      </trkpt>
      <trkpt lat="43.151771" lon="12.312643">
        <ele>399.514</ele>
        <time>2021-12-10T12:48:27Z</time>
      </trkpt>
      <trkpt lat="43.152001" lon="12.311959">
        <ele>396.590</ele>
        <time>2021-12-10T12:49:07Z</time>
      </trkpt>
      <trkpt lat="43.152118" lon="12.311774">
        <ele>392.764</ele>
        <time>2021-12-10T12:49:47Z</time>
      </trkpt>
      <trkpt lat="43.152256" lon="12.311724">
        <ele>389.632</ele>
        <time>2021-12-10T12:50:27Z</time>
      </trkpt>
      <trkpt lat="43.152312" lon="12.311694">
        <ele>388.271</ele>
        <time>2021-12-10T12:51:07Z</time>
      </trkpt>
      <trkpt lat="43.153089" lon="12.311267">
        <ele>375.392</ele>
        <time>2021-12-10T12:51:47Z</time>
      </trkpt>
      <trkpt lat="43.153170" lon="12.311163">
        <ele>372.821</ele>
        <time>2021-12-10T12:52:27Z</time>
      </trkpt>
      <trkpt lat="43.153352" lon="12.311082">
        <ele>370.541</ele>
        <time>2021-12-10T12:53:07Z</time>
      </trkpt>
      <trkpt lat="43.153529" lon="12.311048">
        <ele>370.405</ele>
        <time>2021-12-10T12:53:47Z</time>
      </trkpt>
      <trkpt lat="43.153703" lon="12.311036">
        <ele>370.408</ele>
        <time>2021-12-10T12:54:27Z</time>
      </trkpt>
      <trkpt lat="43.154264" lon="12.311029">
        <ele>366.311</ele>
        <time>2021-12-10T12:55:07Z</time>
      </trkpt>
      <trkpt lat="43.154578" lon="12.310871">
        <ele>361.432</ele>
        <time>2021-12-10T12:55:47Z</time>
      </trkpt>
      <trkpt lat="43.154740" lon="12.310683">
        <ele>358.997</ele>
        <time>2021-12-10T12:56:27Z</time>
      </trkpt>
      <trkpt lat="43.154777" lon="12.310606">
        <ele>358.213</ele>
        <time>2021-12-10T12:57:07Z</time>
      </trkpt>
      <trkpt lat="43.154830" lon="12.310421">
        <ele>355.347</ele>
        <time>2021-12-10T12:57:47Z</time>
      </trkpt>
      <trkpt lat="43.154917" lon="12.310314">
        <ele>353.945</ele>
        <time>2021-12-10T12:58:27Z</time>
      </trkpt>
      <trkpt lat="43.155147" lon="12.310121">
        <ele>348.154</ele>
        <time>2021-12-10T12:59:07Z</time>
      </trkpt>
      <trkpt lat="43.155217" lon="12.310033">
        <ele>346.465</ele>
        <time>2021-12-10T12:59:47Z</time>
      </trkpt>
      <trkpt lat="43.155369" lon="12.309802">
        <ele>341.148</ele>
        <time>2021-12-10T13:00:27Z</time>
      </trkpt>
      <trkpt lat="43.155436" lon="12.309729">
        <ele>339.561</ele>
        <time>2021-12-10T13:01:07Z</time>
      </trkpt>
      <trkpt lat="43.155531" lon="12.309652">
        <ele>338.017</ele>
        <time>2021-12-10T13:01:47Z</time>
      </trkpt>
      <trkpt lat="43.155613" lon="12.309560">
        <ele>336.508</ele>
        <time>2021-12-10T13:02:27Z</time>
      </trkpt>
      <trkpt lat="43.155728" lon="12.309549">
        <ele>336.013</ele>
        <time>2021-12-10T13:03:07Z</time>
      </trkpt>
      <trkpt lat="43.155786" lon="12.309510">
        <ele>335.674</ele>
        <time>2021-12-10T13:03:47Z</time>
      </trkpt>
      <trkpt lat="43.155721" lon="12.309449">
        <ele>335.029</ele>
        <time>2021-12-10T13:04:27Z</time>
      </trkpt>
      <trkpt lat="43.155666" lon="12.309405">
        <ele>334.575</ele>
        <time>2021-12-10T13:05:07Z</time>
      </trkpt>
      <trkpt lat="43.155492" lon="12.309410">
        <ele>334.269</ele>
        <time>2021-12-10T13:05:47Z</time>
      </trkpt>
      <trkpt lat="43.155357" lon="12.309414">
        <ele>333.747</ele>
        <time>2021-12-10T13:06:27Z</time>
      </trkpt>
      <trkpt lat="43.155123" lon="12.309420">
        <ele>333.086</ele>
        <time>2021-12-10T13:07:07Z</time>
      </trkpt>
      <trkpt lat="43.155032" lon="12.309458">
        <ele>333.467</ele>
        <time>2021-12-10T13:07:47Z</time>
      </trkpt>
      <trkpt lat="43.154919" lon="12.309510">
        <ele>334.652</ele>
        <time>2021-12-10T13:08:27Z</time>
      </trkpt>
      <trkpt lat="43.154745" lon="12.309549">
        <ele>335.853</ele>
        <time>2021-12-10T13:09:07Z</time>
      </trkpt>
      <trkpt lat="43.154588" lon="12.309603">
        <ele>337.108</ele>
        <time>2021-12-10T13:09:47Z</time>
      </trkpt>
      <trkpt lat="43.154487" lon="12.309622">
        <ele>337.508</ele>
        <time>2021-12-10T13:10:27Z</time>
      </trkpt>
      <trkpt lat="43.154403" lon="12.309622">
        <ele>337.824</ele>
        <time>2021-12-10T13:11:07Z</time>
      </trkpt>
      <trkpt lat="43.154300" lon="12.309581">
        <ele>337.885</ele>
        <time>2021-12-10T13:11:47Z</time>
      </trkpt>
      <trkpt lat="43.154248" lon="12.309572">
        <ele>337.910</ele>
        <time>2021-12-10T13:12:27Z</time>
      </trkpt>
      <trkpt lat="43.154129" lon="12.309572">
        <ele>338.846</ele>
        <time>2021-12-10T13:13:07Z</time>
      </trkpt>
      <trkpt lat="43.154126" lon="12.309555">
        <ele>338.660</ele>
        <time>2021-12-10T13:13:47Z</time>
      </trkpt>
      <trkpt lat="43.154048" lon="12.309502">
        <ele>338.938</ele>
        <time>2021-12-10T13:14:27Z</time>
      </trkpt>
      <trkpt lat="43.154029" lon="12.309408">
        <ele>338.787</ele>
        <time>2021-12-10T13:15:07Z</time>
      </trkpt>
      <trkpt lat="43.154049" lon="12.309350">
        <ele>338.918</ele>
        <time>2021-12-10T13:15:47Z</time>
      </trkpt>
      <trkpt lat="43.154116" lon="12.309271">
        <ele>338.472</ele>
        <time>2021-12-10T13:16:27Z</time>
      </trkpt>
      <trkpt lat="43.154147" lon="12.308998">
        <ele>339.613</ele>
        <time>2021-12-10T13:17:07Z</time>
      </trkpt>
      <trkpt lat="43.154187" lon="12.308718">
        <ele>338.714</ele>
        <time>2021-12-10T13:17:47Z</time>
      </trkpt>
      <trkpt lat="43.153925" lon="12.308421">
        <ele>342.908</ele>
        <time>2021-12-10T13:18:27Z</time>
      </trkpt>
      <trkpt lat="43.153874" lon="12.308330">
        <ele>343.266</ele>
        <time>2021-12-10T13:19:07Z</time>
      </trkpt>
      <trkpt lat="43.153847" lon="12.308081">
        <ele>340.987</ele>
        <time>2021-12-10T13:19:47Z</time>
      </trkpt>
      <trkpt lat="43.153441" lon="12.307440">
        <ele>337.682</ele>
        <time>2021-12-10T13:20:27Z</time>
      </trkpt>
      <trkpt lat="43.153400" lon="12.307319">
        <ele>336.458</ele>
        <time>2021-12-10T13:21:07Z</time>
      </trkpt>
      <trkpt lat="43.153226" lon="12.307227">
        <ele>337.282</ele>
        <time>2021-12-10T13:21:47Z</time>
      </trkpt>
      <trkpt lat="43.153013" lon="12.307065">
        <ele>338.560</ele>
        <time>2021-12-10T13:22:27Z</time>
      </trkpt>
      <trkpt lat="43.152895" lon="12.306873">
        <ele>340.049</ele>
        <time>2021-12-10T13:23:07Z</time>
      </trkpt>
      <trkpt lat="43.152710" lon="12.306658">
        <ele>343.680</ele>
        <time>2021-12-10T13:23:47Z</time>
      </trkpt>
      <trkpt lat="43.152564" lon="12.306604">
        <ele>346.321</ele>
        <time>2021-12-10T13:24:27Z</time>
      </trkpt>
      <trkpt lat="43.152535" lon="12.306472">
        <ele>344.641</ele>
        <time>2021-12-10T13:25:07Z</time>
      </trkpt>
      <trkpt lat="43.152531" lon="12.306279">
        <ele>342.105</ele>
        <time>2021-12-10T13:25:47Z</time>
      </trkpt>
      <trkpt lat="43.152547" lon="12.306070">
        <ele>339.808</ele>
        <time>2021-12-10T13:26:27Z</time>
      </trkpt>
      <trkpt lat="43.152535" lon="12.305899">
        <ele>339.411</ele>
        <time>2021-12-10T13:27:07Z</time>
      </trkpt>
      <trkpt lat="43.152526" lon="12.305757">
        <ele>339.392</ele>
        <time>2021-12-10T13:27:47Z</time>
      </trkpt>
      <trkpt lat="43.152597" lon="12.305557">
        <ele>337.257</ele>
        <time>2021-12-10T13:28:27Z</time>
      </trkpt>
      <trkpt lat="43.152630" lon="12.305345">
        <ele>336.683</ele>
        <time>2021-12-10T13:29:07Z</time>
      </trkpt>
      <trkpt lat="43.152661" lon="12.305191">
        <ele>336.367</ele>
        <time>2021-12-10T13:29:47Z</time>
      </trkpt>
      <trkpt lat="43.152664" lon="12.304978">
        <ele>336.925</ele>
        <time>2021-12-10T13:30:27Z</time>
      </trkpt>
      <trkpt lat="43.152690" lon="12.304844">
        <ele>336.274</ele>
        <time>2021-12-10T13:31:07Z</time>
      </trkpt>
      <trkpt lat="43.152702" lon="12.304788">
        <ele>335.985</ele>
        <time>2021-12-10T13:31:47Z</time>
      </trkpt>
      <trkpt lat="43.152702" lon="12.304694">
        <ele>335.975</ele>
        <time>2021-12-10T13:32:27Z</time>
      </trkpt>
      <trkpt lat="43.152773" lon="12.304455">
        <ele>334.128</ele>
        <time>2021-12-10T13:33:07Z</time>
      </trkpt>
      <trkpt lat="43.152796" lon="12.304340">
        <ele>333.820</ele>
        <time>2021-12-10T13:33:47Z</time>
      </trkpt>
      <trkpt lat="43.152803" lon="12.304205">
        <ele>333.708</ele>
        <time>2021-12-10T13:34:27Z</time>
      </trkpt>
      <trkpt lat="43.152827" lon="12.304083">
        <ele>333.556</ele>
        <time>2021-12-10T13:35:07Z</time>
      </trkpt>
      <trkpt lat="43.152836" lon="12.303932">
        <ele>333.577</ele>
        <time>2021-12-10T13:35:47Z</time>
      </trkpt>
      <trkpt lat="43.152829" lon="12.303766">
        <ele>333.632</ele>
        <time>2021-12-10T13:36:27Z</time>
      </trkpt>
      <trkpt lat="43.152808" lon="12.303707">
        <ele>333.878</ele>
        <time>2021-12-10T13:37:07Z</time>
      </trkpt>
      <trkpt lat="43.152791" lon="12.303684">
        <ele>333.982</ele>
        <time>2021-12-10T13:37:47Z</time>
      </trkpt>
      <trkpt lat="43.152697" lon="12.303631">
        <ele>334.920</ele>
        <time>2021-12-10T13:38:27Z</time>
      </trkpt>
      <trkpt lat="43.152627" lon="12.303635">
        <ele>335.739</ele>
        <time>2021-12-10T13:39:07Z</time>
      </trkpt>
      <trkpt lat="43.152560" lon="12.303695">
        <ele>336.880</ele>
        <time>2021-12-10T13:39:47Z</time>
      </trkpt>
      <trkpt lat="43.152368" lon="12.303862">
        <ele>340.612</ele>
        <time>2021-12-10T13:40:27Z</time>
      </trkpt>
      <trkpt lat="43.152260" lon="12.303987">
        <ele>343.532</ele>
        <time>2021-12-10T13:41:07Z</time>
      </trkpt>
      <trkpt lat="43.152179" lon="12.304133">
        <ele>346.105</ele>
        <time>2021-12-10T13:41:47Z</time>
      </trkpt>
      <trkpt lat="43.152099" lon="12.304229">
        <ele>347.808</ele>
        <time>2021-12-10T13:42:27Z</time>
      </trkpt>
      <trkpt lat="43.151970" lon="12.304320">
        <ele>350.350</ele>
        <time>2021-12-10T13:43:07Z</time>
      </trkpt>
      <trkpt lat="43.152026" lon="12.304149">
        <ele>347.851</ele>
        <time>2021-12-10T13:43:47Z</time>
      </trkpt>
      <trkpt lat="43.151944" lon="12.304061">
        <ele>347.136</ele>
        <time>2021-12-10T13:44:27Z</time>
      </trkpt>
      <trkpt lat="43.151940" lon="12.304056">
        <ele>347.072</ele>
        <time>2021-12-10T13:45:07Z</time>
      </trkpt>
      <trkpt lat="43.151933" lon="12.304047">
        <ele>346.946</ele>
        <time>2021-12-10T13:45:47Z</time>
      </trkpt>
      <trkpt lat="43.151913" lon="12.304023">
        <ele>346.544</ele>
        <time>2021-12-10T13:46:27Z</time>
      </trkpt>
      <trkpt lat="43.151889" lon="12.303922">
        <ele>344.843</ele>
        <time>2021-12-10T13:47:07Z</time>
      </trkpt>
      <trkpt lat="43.151867" lon="12.303791">
        <ele>342.894</ele>
        <time>2021-12-10T13:47:47Z</time>
      </trkpt>
      <trkpt lat="43.151815" lon="12.303640">
        <ele>341.291</ele>
        <time>2021-12-10T13:48:27Z</time>
      </trkpt>
      <trkpt lat="43.151780" lon="12.303621">
        <ele>341.581</ele>
        <time>2021-12-10T13:49:07Z</time>
      </trkpt>
      <trkpt lat="43.151718" lon="12.303578">
        <ele>341.919</ele>
        <time>2021-12-10T13:49:47Z</time>
      </trkpt>
      <trkpt lat="43.151708" lon="12.303565">
        <ele>341.908</ele>
        <time>2021-12-10T13:50:27Z</time>
      </trkpt>
      <trkpt lat="43.151637" lon="12.303462">
        <ele>341.848</ele>
        <time>2021-12-10T13:51:07Z</time>
      </trkpt>
      <trkpt lat="43.151623" lon="12.303345">
        <ele>340.849</ele>
        <time>2021-12-10T13:51:47Z</time>
      </trkpt>
      <trkpt lat="43.151649" lon="12.303121">
        <ele>337.284</ele>
        <time>2021-12-10T13:52:27Z</time>
      </trkpt>
      <trkpt lat="43.151780" lon="12.302974">
        <ele>332.220</ele>
        <time>2021-12-10T13:53:07Z</time>
      </trkpt>
      <trkpt lat="43.151823" lon="12.302863">
        <ele>329.084</ele>
        <time>2021-12-10T13:53:47Z</time>
      </trkpt>
      <trkpt lat="43.151795" lon="12.302653">
        <ele>325.742</ele>
        <time>2021-12-10T13:54:27Z</time>
      </trkpt>
      <trkpt lat="43.151833" lon="12.302505">
        <ele>322.591</ele>
        <time>2021-12-10T13:55:07Z</time>
      </trkpt>
      <trkpt lat="43.151858" lon="12.302329">
        <ele>319.432</ele>
        <time>2021-12-10T13:55:47Z</time>
      </trkpt>
      <trkpt lat="43.151874" lon="12.302147">
        <ele>316.127</ele>
        <time>2021-12-10T13:56:27Z</time>
      </trkpt>
      <trkpt lat="43.151899" lon="12.302013">
        <ele>313.168</ele>
        <time>2021-12-10T13:57:07Z</time>
      </trkpt>
      <trkpt lat="43.151899" lon="12.301893">
        <ele>310.214</ele>
        <time>2021-12-10T13:57:47Z</time>
      </trkpt>
      <trkpt lat="43.151874" lon="12.301839">
        <ele>308.908</ele>
        <time>2021-12-10T13:58:27Z</time>
      </trkpt>
      <trkpt lat="43.151799" lon="12.301781">
        <ele>308.631</ele>
        <time>2021-12-10T13:59:07Z</time>
      </trkpt>
      <trkpt lat="43.151741" lon="12.301746">
        <ele>308.812</ele>
        <time>2021-12-10T13:59:47Z</time>
      </trkpt>
      <trkpt lat="43.151672" lon="12.301664">
        <ele>307.897</ele>
        <time>2021-12-10T14:00:27Z</time>
      </trkpt>
      <trkpt lat="43.151635" lon="12.301605">
        <ele>306.513</ele>
        <time>2021-12-10T14:01:07Z</time>
      </trkpt>
      <trkpt lat="43.151560" lon="12.301530">
        <ele>304.867</ele>
        <time>2021-12-10T14:01:47Z</time>
      </trkpt>
      <trkpt lat="43.151507" lon="12.301483">
        <ele>303.945</ele>
        <time>2021-12-10T14:02:27Z</time>
      </trkpt>
      <trkpt lat="43.151411" lon="12.301352">
        <ele>300.754</ele>
        <time>2021-12-10T14:03:07Z</time>
      </trkpt>
      <trkpt lat="43.151348" lon="12.301255">
        <ele>297.965</ele>
        <time>2021-12-10T14:03:47Z</time>
      </trkpt>
      <trkpt lat="43.151309" lon="12.301267">
        <ele>298.444</ele>
        <time>2021-12-10T14:04:27Z</time>
      </trkpt>
      <trkpt lat="43.151246" lon="12.301328">
        <ele>300.405</ele>
        <time>2021-12-10T14:05:07Z</time>
      </trkpt>
      <trkpt lat="43.151002" lon="12.301473">
        <ele>304.315</ele>
        <time>2021-12-10T14:05:47Z</time>
      </trkpt>
      <trkpt lat="43.150893" lon="12.301507">
        <ele>305.108</ele>
        <time>2021-12-10T14:06:27Z</time>
      </trkpt>
      <trkpt lat="43.150498" lon="12.301657">
        <ele>311.643</ele>
        <time>2021-12-10T14:07:07Z</time>
      </trkpt>
      <trkpt lat="43.150356" lon="12.301741">
        <ele>316.364</ele>
        <time>2021-12-10T14:07:47Z</time>
      </trkpt>
      <trkpt lat="43.150353" lon="12.301790">
        <ele>317.979</ele>
        <time>2021-12-10T14:08:27Z</time>
      </trkpt>
      <trkpt lat="43.150430" lon="12.301846">
        <ele>318.695</ele>
        <time>2021-12-10T14:09:07Z</time>
      </trkpt>
      <trkpt lat="43.150473" lon="12.301901">
        <ele>319.889</ele>
        <time>2021-12-10T14:09:47Z</time>
      </trkpt>
      <trkpt lat="43.150475" lon="12.301961">
        <ele>321.717</ele>
        <time>2021-12-10T14:10:27Z</time>
      </trkpt>
      <trkpt lat="43.150445" lon="12.301982">
        <ele>322.976</ele>
        <time>2021-12-10T14:11:07Z</time>
      </trkpt>
      <trkpt lat="43.150371" lon="12.301999">
        <ele>324.367</ele>
        <time>2021-12-10T14:11:47Z</time>
      </trkpt>
      <trkpt lat="43.150140" lon="12.302132">
        <ele>329.132</ele>
        <time>2021-12-10T14:12:27Z</time>
      </trkpt>
      <trkpt lat="43.150051" lon="12.302187">
        <ele>330.892</ele>
        <time>2021-12-10T14:13:07Z</time>
      </trkpt>
      <trkpt lat="43.149949" lon="12.302250">
        <ele>332.311</ele>
        <time>2021-12-10T14:13:47Z</time>
      </trkpt>
      <trkpt lat="43.149799" lon="12.302332">
        <ele>333.308</ele>
        <time>2021-12-10T14:14:27Z</time>
      </trkpt>
      <trkpt lat="43.149706" lon="12.302414">
        <ele>334.622</ele>
        <time>2021-12-10T14:15:07Z</time>
      </trkpt>
      <trkpt lat="43.149645" lon="12.302527">
        <ele>336.813</ele>
        <time>2021-12-10T14:15:47Z</time>
      </trkpt>
      <trkpt lat="43.149515" lon="12.302730">
        <ele>340.398</ele>
        <time>2021-12-10T14:16:27Z</time>
      </trkpt>
      <trkpt lat="43.149396" lon="12.302913">
        <ele>343.664</ele>
        <time>2021-12-10T14:17:07Z</time>
      </trkpt>
      <trkpt lat="43.149357" lon="12.302993">
        <ele>344.858</ele>
        <time>2021-12-10T14:17:47Z</time>
      </trkpt>
      <trkpt lat="43.149299" lon="12.303193">
        <ele>348.636</ele>
        <time>2021-12-10T14:18:27Z</time>
      </trkpt>
      <trkpt lat="43.149189" lon="12.303399">
        <ele>352.025</ele>
        <time>2021-12-10T14:19:07Z</time>
      </trkpt>
      <trkpt lat="43.149004" lon="12.303720">
        <ele>358.336</ele>
        <time>2021-12-10T14:19:47Z</time>
      </trkpt>
      <trkpt lat="43.148910" lon="12.303936">
        <ele>362.366</ele>
        <time>2021-12-10T14:20:27Z</time>
      </trkpt>
      <trkpt lat="43.148777" lon="12.304271">
        <ele>367.229</ele>
        <time>2021-12-10T14:21:07Z</time>
      </trkpt>
      <trkpt lat="43.148622" lon="12.304661">
        <ele>372.821</ele>
        <time>2021-12-10T14:21:47Z</time>
      </trkpt>
      <trkpt lat="43.148541" lon="12.304839">
        <ele>375.208</ele>
        <time>2021-12-10T14:22:27Z</time>
      </trkpt>
      <trkpt lat="43.148431" lon="12.305107">
        <ele>378.775</ele>
        <time>2021-12-10T14:23:07Z</time>
      </trkpt>
      <trkpt lat="43.148325" lon="12.305508">
        <ele>382.256</ele>
        <time>2021-12-10T14:23:47Z</time>
      </trkpt>
      <trkpt lat="43.148340" lon="12.305616">
        <ele>383.651</ele>
        <time>2021-12-10T14:24:27Z</time>
      </trkpt>
      <trkpt lat="43.148378" lon="12.305721">
        <ele>385.397</ele>
        <time>2021-12-10T14:25:07Z</time>
      </trkpt>
      <trkpt lat="43.148459" lon="12.305871">
        <ele>388.871</ele>
        <time>2021-12-10T14:25:47Z</time>
      </trkpt>
      <trkpt lat="43.148566" lon="12.306024">
        <ele>392.489</ele>
        <time>2021-12-10T14:26:27Z</time>
      </trkpt>
      <trkpt lat="43.148693" lon="12.306133">
        <ele>395.158</ele>
        <time>2021-12-10T14:27:07Z</time>
      </trkpt>
      <trkpt lat="43.148828" lon="12.306223">
        <ele>397.039</ele>
        <time>2021-12-10T14:27:47Z</time>
      </trkpt>
      <trkpt lat="43.148961" lon="12.306384">
        <ele>398.258</ele>
        <time>2021-12-10T14:28:27Z</time>
      </trkpt>
      <trkpt lat="43.149032" lon="12.306513">
        <ele>397.952</ele>
        <time>2021-12-10T14:29:07Z</time>
      </trkpt>
      <trkpt lat="43.149098" lon="12.306593">
        <ele>397.817</ele>
        <time>2021-12-10T14:29:47Z</time>
      </trkpt>
      <trkpt lat="43.149151" lon="12.306656">
        <ele>397.908</ele>
        <time>2021-12-10T14:30:27Z</time>
      </trkpt>
      <trkpt lat="43.149322" lon="12.306945">
        <ele>398.644</ele>
        <time>2021-12-10T14:31:07Z</time>
      </trkpt>
      <trkpt lat="43.149406" lon="12.307119">
        <ele>399.995</ele>
        <time>2021-12-10T14:31:47Z</time>
      </trkpt>
      <trkpt lat="43.149523" lon="12.307363">
        <ele>401.320</ele>
        <time>2021-12-10T14:32:27Z</time>
      </trkpt>
      <trkpt lat="43.149614" lon="12.307531">
        <ele>402.386</ele>
        <time>2021-12-10T14:33:07Z</time>
      </trkpt>
      <trkpt lat="43.149663" lon="12.307771">
        <ele>403.530</ele>
        <time>2021-12-10T14:33:47Z</time>
      </trkpt>
      <trkpt lat="43.149670" lon="12.307942">
        <ele>405.428</ele>
        <time>2021-12-10T14:34:27Z</time>
      </trkpt>
      <trkpt lat="43.149534" lon="12.308183">
        <ele>407.597</ele>
        <time>2021-12-10T14:35:07Z</time>
      </trkpt>
      <trkpt lat="43.149439" lon="12.308460">
        <ele>410.328</ele>
        <time>2021-12-10T14:35:47Z</time>
      </trkpt>
      <trkpt lat="43.149378" lon="12.308591">
        <ele>410.665</ele>
        <time>2021-12-10T14:36:27Z</time>
      </trkpt>
      <trkpt lat="43.149299" lon="12.308941">
        <ele>412.568</ele>
        <time>2021-12-10T14:37:07Z</time>
      </trkpt>
      <trkpt lat="43.149276" lon="12.309154">
        <ele>414.414</ele>
        <time>2021-12-10T14:37:47Z</time>
      </trkpt>
      <trkpt lat="43.149233" lon="12.309342">
        <ele>416.508</ele>
        <time>2021-12-10T14:38:27Z</time>
      </trkpt>
      <trkpt lat="43.149215" lon="12.309544">
        <ele>419.175</ele>
        <time>2021-12-10T14:39:07Z</time>
      </trkpt>
      <trkpt lat="43.149210" lon="12.309813">
        <ele>422.666</ele>
        <time>2021-12-10T14:39:47Z</time>
      </trkpt>
      <trkpt lat="43.149159" lon="12.310071">
        <ele>424.671</ele>
        <time>2021-12-10T14:40:27Z</time>
      </trkpt>
      <trkpt lat="43.149123" lon="12.310235">
        <ele>425.857</ele>
        <time>2021-12-10T14:41:07Z</time>
      </trkpt>
      <trkpt lat="43.149062" lon="12.310430">
        <ele>427.091</ele>
        <time>2021-12-10T14:41:47Z</time>
      </trkpt>
      <trkpt lat="43.149024" lon="12.310524">
        <ele>427.529</ele>
        <time>2021-12-10T14:42:27Z</time>
      </trkpt>
      <trkpt lat="43.148949" lon="12.310708">
        <ele>429.678</ele>
        <time>2021-12-10T14:43:07Z</time>
      </trkpt>
      <trkpt lat="43.148866" lon="12.310862">
        <ele>431.449</ele>
        <time>2021-12-10T14:43:47Z</time>
      </trkpt>
      <trkpt lat="43.148793" lon="12.310974">
        <ele>432.865</ele>
        <time>2021-12-10T14:44:27Z</time>
      </trkpt>
      <trkpt lat="43.148743" lon="12.311096">
        <ele>434.768</ele>
        <time>2021-12-10T14:45:07Z</time>
      </trkpt>
      <trkpt lat="43.148716" lon="12.311239">
        <ele>436.614</ele>
        <time>2021-12-10T14:45:47Z</time>
      </trkpt>
      <trkpt lat="43.148676" lon="12.311462">
        <ele>439.808</ele>
        <time>2021-12-10T14:46:27Z</time>
      </trkpt>
      <trkpt lat="43.148536" lon="12.311647">
        <ele>442.775</ele>
        <time>2021-12-10T14:47:07Z</time>
      </trkpt>
      <trkpt lat="43.148498" lon="12.311701">
        <ele>443.856</ele>
        <time>2021-12-10T14:47:47Z</time>
      </trkpt>
      <trkpt lat="43.148479" lon="12.311730">
        <ele>444.481</ele>
        <time>2021-12-10T14:48:27Z</time>
      </trkpt>
      <trkpt lat="43.148477" lon="12.311741">
        <ele>444.687</ele>
        <time>2021-12-10T14:49:07Z</time>
      </trkpt>
    </trkseg>
  </trk></gpx>